sensor_id;sensor_type;location;lat;lon;timestamp;P1;durP1;ratioP1;P2;durP2;ratioP2
15616;SDS011;7908;51.688;7.130;2022-11-20T00:01:37;16.40;;;8.43;;
15616;SDS011;7908;51.688;7.130;2022-11-20T00:04:06;22.30;;;10.63;;
15616;SDS011;7908;51.688;7.130;2022-11-20T00:06:37;31.27;;;12.83;;
15616;SDS011;7908;51.688;7.130;2022-11-20T00:09:06;39.50;;;18.20;;
15616;SDS011;7908;51.688;7.130;2022-11-20T00:11:37;38.53;;;16.40;;
15616;SDS011;7908;51.688;7.130;2022-11-20T00:14:06;35.77;;;16.03;;
15616;SDS011;7908;51.688;7.130;2022-11-20T00:16:36;31.13;;;16.03;;
15616;SDS011;7908;51.688;7.130;2022-11-20T00:19:05;23.67;;;11.73;;
15616;SDS011;7908;51.688;7.130;2022-11-20T00:21:34;22.30;;;10.90;;
15616;SDS011;7908;51.688;7.130;2022-11-20T00:24:04;18.37;;;10.17;;
15616;SDS011;7908;51.688;7.130;2022-11-20T00:26:33;16.30;;;8.37;;
15616;SDS011;7908;51.688;7.130;2022-11-20T00:29:02;16.10;;;8.80;;
15616;SDS011;7908;51.688;7.130;2022-11-20T00:31:31;13.37;;;7.30;;
15616;SDS011;7908;51.688;7.130;2022-11-20T00:34:00;17.90;;;7.13;;
15616;SDS011;7908;51.688;7.130;2022-11-20T00:36:31;12.43;;;6.43;;
15616;SDS011;7908;51.688;7.130;2022-11-20T00:39:01;11.90;;;6.90;;
15616;SDS011;7908;51.688;7.130;2022-11-20T00:41:31;12.33;;;6.93;;
15616;SDS011;7908;51.688;7.130;2022-11-20T00:44:00;14.43;;;6.57;;
15616;SDS011;7908;51.688;7.130;2022-11-20T00:46:29;10.83;;;6.53;;
15616;SDS011;7908;51.688;7.130;2022-11-20T00:48:57;11.83;;;6.40;;
15616;SDS011;7908;51.688;7.130;2022-11-20T00:51:26;10.17;;;6.20;;
15616;SDS011;7908;51.688;7.130;2022-11-20T00:53:55;11.27;;;6.30;;
15616;SDS011;7908;51.688;7.130;2022-11-20T00:56:26;13.27;;;6.37;;
15616;SDS011;7908;51.688;7.130;2022-11-20T00:58:54;10.90;;;5.63;;
15616;SDS011;7908;51.688;7.130;2022-11-20T01:01:24;11.10;;;6.50;;
15616;SDS011;7908;51.688;7.130;2022-11-20T01:03:56;14.00;;;6.90;;
15616;SDS011;7908;51.688;7.130;2022-11-20T01:06:27;11.43;;;6.03;;
15616;SDS011;7908;51.688;7.130;2022-11-20T01:08:58;9.20;;;5.50;;
15616;SDS011;7908;51.688;7.130;2022-11-20T01:11:30;11.03;;;6.17;;
15616;SDS011;7908;51.688;7.130;2022-11-20T01:14:01;12.57;;;6.20;;
15616;SDS011;7908;51.688;7.130;2022-11-20T01:16:32;10.27;;;5.83;;
15616;SDS011;7908;51.688;7.130;2022-11-20T01:19:03;14.20;;;7.20;;
15616;SDS011;7908;51.688;7.130;2022-11-20T01:21:34;15.87;;;7.23;;
15616;SDS011;7908;51.688;7.130;2022-11-20T01:24:04;12.13;;;6.67;;
15616;SDS011;7908;51.688;7.130;2022-11-20T01:26:37;12.47;;;7.40;;
15616;SDS011;7908;51.688;7.130;2022-11-20T01:29:08;14.43;;;7.90;;
15616;SDS011;7908;51.688;7.130;2022-11-20T01:31:41;19.83;;;7.67;;
15616;SDS011;7908;51.688;7.130;2022-11-20T01:34:11;10.77;;;6.50;;
15616;SDS011;7908;51.688;7.130;2022-11-20T01:36:41;15.40;;;7.57;;
15616;SDS011;7908;51.688;7.130;2022-11-20T01:39:11;11.33;;;6.43;;
15616;SDS011;7908;51.688;7.130;2022-11-20T01:41:43;10.17;;;5.90;;
15616;SDS011;7908;51.688;7.130;2022-11-20T01:44:49;20.10;;;6.87;;
15616;SDS011;7908;51.688;7.130;2022-11-20T01:47:22;11.63;;;6.27;;
15616;SDS011;7908;51.688;7.130;2022-11-20T01:49:55;10.00;;;5.47;;
15616;SDS011;7908;51.688;7.130;2022-11-20T01:52:28;10.43;;;5.63;;
15616;SDS011;7908;51.688;7.130;2022-11-20T01:55:04;7.83;;;4.90;;
15616;SDS011;7908;51.688;7.130;2022-11-20T01:57:37;12.00;;;4.90;;
15616;SDS011;7908;51.688;7.130;2022-11-20T02:00:08;9.80;;;5.70;;
15616;SDS011;7908;51.688;7.130;2022-11-20T02:02:38;11.77;;;6.87;;
15616;SDS011;7908;51.688;7.130;2022-11-20T02:05:11;14.27;;;8.23;;
15616;SDS011;7908;51.688;7.130;2022-11-20T02:07:44;13.47;;;6.97;;
15616;SDS011;7908;51.688;7.130;2022-11-20T02:10:14;24.13;;;12.17;;
15616;SDS011;7908;51.688;7.130;2022-11-20T02:12:44;27.60;;;13.47;;
15616;SDS011;7908;51.688;7.130;2022-11-20T02:15:31;24.67;;;12.77;;
15616;SDS011;7908;51.688;7.130;2022-11-20T02:18:01;16.73;;;8.50;;
15616;SDS011;7908;51.688;7.130;2022-11-20T02:20:29;18.70;;;9.83;;
15616;SDS011;7908;51.688;7.130;2022-11-20T02:22:59;15.87;;;9.50;;
15616;SDS011;7908;51.688;7.130;2022-11-20T02:25:32;11.20;;;6.90;;
15616;SDS011;7908;51.688;7.130;2022-11-20T02:28:03;12.67;;;6.73;;
15616;SDS011;7908;51.688;7.130;2022-11-20T02:30:33;12.17;;;6.80;;
15616;SDS011;7908;51.688;7.130;2022-11-20T02:33:01;18.00;;;6.90;;
15616;SDS011;7908;51.688;7.130;2022-11-20T02:35:40;12.40;;;7.00;;
15616;SDS011;7908;51.688;7.130;2022-11-20T02:38:10;12.67;;;7.03;;
15616;SDS011;7908;51.688;7.130;2022-11-20T02:40:42;15.47;;;7.57;;
15616;SDS011;7908;51.688;7.130;2022-11-20T02:43:11;13.40;;;7.20;;
15616;SDS011;7908;51.688;7.130;2022-11-20T02:45:39;11.00;;;6.50;;
15616;SDS011;7908;51.688;7.130;2022-11-20T02:48:08;14.40;;;7.23;;
15616;SDS011;7908;51.688;7.130;2022-11-20T02:50:37;10.97;;;5.53;;
15616;SDS011;7908;51.688;7.130;2022-11-20T02:53:07;13.93;;;6.57;;
15616;SDS011;7908;51.688;7.130;2022-11-20T02:55:35;10.43;;;5.50;;
15616;SDS011;7908;51.688;7.130;2022-11-20T02:58:05;14.60;;;8.70;;
15616;SDS011;7908;51.688;7.130;2022-11-20T03:00:34;13.77;;;6.77;;
15616;SDS011;7908;51.688;7.130;2022-11-20T03:03:02;14.50;;;7.40;;
15616;SDS011;7908;51.688;7.130;2022-11-20T03:05:31;12.40;;;6.87;;
15616;SDS011;7908;51.688;7.130;2022-11-20T03:07:59;14.37;;;7.90;;
15616;SDS011;7908;51.688;7.130;2022-11-20T03:10:28;13.90;;;7.23;;
15616;SDS011;7908;51.688;7.130;2022-11-20T03:12:56;13.80;;;7.60;;
15616;SDS011;7908;51.688;7.130;2022-11-20T03:15:27;15.30;;;7.63;;
15616;SDS011;7908;51.688;7.130;2022-11-20T03:17:55;13.10;;;8.10;;
15616;SDS011;7908;51.688;7.130;2022-11-20T03:20:24;16.07;;;9.07;;
15616;SDS011;7908;51.688;7.130;2022-11-20T03:22:53;11.90;;;6.50;;
15616;SDS011;7908;51.688;7.130;2022-11-20T03:25:22;14.53;;;8.17;;
15616;SDS011;7908;51.688;7.130;2022-11-20T03:27:50;17.80;;;8.50;;
15616;SDS011;7908;51.688;7.130;2022-11-20T03:30:19;14.37;;;7.90;;
15616;SDS011;7908;51.688;7.130;2022-11-20T03:32:57;18.60;;;7.37;;
15616;SDS011;7908;51.688;7.130;2022-11-20T03:35:26;11.57;;;6.80;;
15616;SDS011;7908;51.688;7.130;2022-11-20T03:37:57;13.30;;;8.33;;
15616;SDS011;7908;51.688;7.130;2022-11-20T03:40:25;13.67;;;8.30;;
15616;SDS011;7908;51.688;7.130;2022-11-20T03:42:54;15.10;;;7.90;;
15616;SDS011;7908;51.688;7.130;2022-11-20T03:45:22;15.90;;;8.60;;
15616;SDS011;7908;51.688;7.130;2022-11-20T03:47:51;16.33;;;8.13;;
15616;SDS011;7908;51.688;7.130;2022-11-20T03:50:21;11.43;;;6.87;;
15616;SDS011;7908;51.688;7.130;2022-11-20T03:52:50;13.37;;;7.87;;
15616;SDS011;7908;51.688;7.130;2022-11-20T03:55:18;13.57;;;7.63;;
15616;SDS011;7908;51.688;7.130;2022-11-20T03:57:47;14.67;;;7.77;;
15616;SDS011;7908;51.688;7.130;2022-11-20T04:00:16;12.03;;;7.13;;
15616;SDS011;7908;51.688;7.130;2022-11-20T04:02:45;12.73;;;7.53;;
15616;SDS011;7908;51.688;7.130;2022-11-20T04:05:13;14.73;;;7.57;;
15616;SDS011;7908;51.688;7.130;2022-11-20T04:07:44;15.73;;;8.73;;
15616;SDS011;7908;51.688;7.130;2022-11-20T04:10:12;13.43;;;7.80;;
15616;SDS011;7908;51.688;7.130;2022-11-20T04:12:41;12.17;;;6.40;;
15616;SDS011;7908;51.688;7.130;2022-11-20T04:15:10;12.33;;;6.77;;
15616;SDS011;7908;51.688;7.130;2022-11-20T04:17:39;11.60;;;5.70;;
15616;SDS011;7908;51.688;7.130;2022-11-20T04:20:08;11.53;;;6.53;;
15616;SDS011;7908;51.688;7.130;2022-11-20T04:22:37;12.00;;;6.57;;
15616;SDS011;7908;51.688;7.130;2022-11-20T04:25:08;12.00;;;7.07;;
15616;SDS011;7908;51.688;7.130;2022-11-20T04:27:36;12.07;;;6.10;;
15616;SDS011;7908;51.688;7.130;2022-11-20T04:30:05;15.47;;;8.53;;
15616;SDS011;7908;51.688;7.130;2022-11-20T04:32:35;14.43;;;8.23;;
15616;SDS011;7908;51.688;7.130;2022-11-20T04:35:03;15.80;;;7.37;;
15616;SDS011;7908;51.688;7.130;2022-11-20T04:37:32;13.70;;;7.63;;
15616;SDS011;7908;51.688;7.130;2022-11-20T04:40:01;15.17;;;8.23;;
15616;SDS011;7908;51.688;7.130;2022-11-20T04:42:31;16.57;;;8.43;;
15616;SDS011;7908;51.688;7.130;2022-11-20T04:45:00;15.97;;;9.00;;
15616;SDS011;7908;51.688;7.130;2022-11-20T04:47:29;14.70;;;8.33;;
15616;SDS011;7908;51.688;7.130;2022-11-20T04:49:57;16.23;;;9.00;;
15616;SDS011;7908;51.688;7.130;2022-11-20T04:52:26;11.37;;;7.27;;
15616;SDS011;7908;51.688;7.130;2022-11-20T04:54:55;15.63;;;7.80;;
15616;SDS011;7908;51.688;7.130;2022-11-20T04:57:23;15.40;;;7.17;;
15616;SDS011;7908;51.688;7.130;2022-11-20T04:59:53;15.57;;;7.57;;
15616;SDS011;7908;51.688;7.130;2022-11-20T05:02:22;22.03;;;12.07;;
15616;SDS011;7908;51.688;7.130;2022-11-20T05:04:50;18.40;;;9.90;;
15616;SDS011;7908;51.688;7.130;2022-11-20T05:07:21;19.20;;;10.47;;
15616;SDS011;7908;51.688;7.130;2022-11-20T05:09:50;20.10;;;11.23;;
15616;SDS011;7908;51.688;7.130;2022-11-20T05:12:19;19.47;;;10.13;;
15616;SDS011;7908;51.688;7.130;2022-11-20T05:14:47;19.00;;;10.13;;
15616;SDS011;7908;51.688;7.130;2022-11-20T05:17:17;20.63;;;9.33;;
15616;SDS011;7908;51.688;7.130;2022-11-20T05:19:46;18.77;;;9.90;;
15616;SDS011;7908;51.688;7.130;2022-11-20T05:22:18;17.53;;;9.20;;
15616;SDS011;7908;51.688;7.130;2022-11-20T05:24:47;13.70;;;7.43;;
15616;SDS011;7908;51.688;7.130;2022-11-20T05:27:15;17.77;;;9.87;;
15616;SDS011;7908;51.688;7.130;2022-11-20T05:29:44;17.77;;;9.23;;
15616;SDS011;7908;51.688;7.130;2022-11-20T05:32:13;17.47;;;9.07;;
15616;SDS011;7908;51.688;7.130;2022-11-20T05:34:43;16.63;;;9.63;;
15616;SDS011;7908;51.688;7.130;2022-11-20T05:37:11;15.90;;;8.83;;
15616;SDS011;7908;51.688;7.130;2022-11-20T05:39:40;17.23;;;9.57;;
15616;SDS011;7908;51.688;7.130;2022-11-20T05:42:08;18.07;;;9.63;;
15616;SDS011;7908;51.688;7.130;2022-11-20T05:44:54;17.90;;;9.47;;
15616;SDS011;7908;51.688;7.130;2022-11-20T05:47:23;18.90;;;10.20;;
15616;SDS011;7908;51.688;7.130;2022-11-20T05:49:53;16.70;;;9.40;;
15616;SDS011;7908;51.688;7.130;2022-11-20T05:52:23;16.03;;;9.73;;
15616;SDS011;7908;51.688;7.130;2022-11-20T05:54:52;16.77;;;9.07;;
15616;SDS011;7908;51.688;7.130;2022-11-20T05:57:21;17.97;;;9.73;;
15616;SDS011;7908;51.688;7.130;2022-11-20T05:59:50;17.30;;;8.00;;
15616;SDS011;7908;51.688;7.130;2022-11-20T06:02:18;15.07;;;8.97;;
15616;SDS011;7908;51.688;7.130;2022-11-20T06:04:47;17.90;;;9.57;;
15616;SDS011;7908;51.688;7.130;2022-11-20T06:07:17;17.27;;;9.20;;
15616;SDS011;7908;51.688;7.130;2022-11-20T06:09:45;14.03;;;7.10;;
15616;SDS011;7908;51.688;7.130;2022-11-20T06:12:14;27.33;;;15.33;;
15616;SDS011;7908;51.688;7.130;2022-11-20T06:14:43;20.27;;;10.60;;
15616;SDS011;7908;51.688;7.130;2022-11-20T06:17:11;17.50;;;10.53;;
15616;SDS011;7908;51.688;7.130;2022-11-20T06:19:40;16.67;;;9.70;;
15616;SDS011;7908;51.688;7.130;2022-11-20T06:22:09;17.03;;;10.50;;
15616;SDS011;7908;51.688;7.130;2022-11-20T06:24:39;20.47;;;9.73;;
15616;SDS011;7908;51.688;7.130;2022-11-20T06:27:07;21.00;;;10.87;;
15616;SDS011;7908;51.688;7.130;2022-11-20T06:29:36;22.27;;;11.60;;
15616;SDS011;7908;51.688;7.130;2022-11-20T06:32:05;18.10;;;10.07;;
15616;SDS011;7908;51.688;7.130;2022-11-20T06:34:33;16.57;;;9.13;;
15616;SDS011;7908;51.688;7.130;2022-11-20T06:37:02;12.10;;;7.20;;
15616;SDS011;7908;51.688;7.130;2022-11-20T06:39:30;15.13;;;8.60;;
15616;SDS011;7908;51.688;7.130;2022-11-20T06:42:01;18.57;;;8.80;;
15616;SDS011;7908;51.688;7.130;2022-11-20T06:44:29;14.33;;;8.13;;
15616;SDS011;7908;51.688;7.130;2022-11-20T06:46:58;19.27;;;8.77;;
15616;SDS011;7908;51.688;7.130;2022-11-20T06:49:27;15.37;;;8.27;;
15616;SDS011;7908;51.688;7.130;2022-11-20T06:51:56;22.37;;;9.83;;
15616;SDS011;7908;51.688;7.130;2022-11-20T06:54:25;18.33;;;8.43;;
15616;SDS011;7908;51.688;7.130;2022-11-20T06:56:53;18.80;;;9.70;;
15616;SDS011;7908;51.688;7.130;2022-11-20T06:59:23;18.13;;;8.90;;
15616;SDS011;7908;51.688;7.130;2022-11-20T07:01:52;15.80;;;8.43;;
15616;SDS011;7908;51.688;7.130;2022-11-20T07:04:20;15.33;;;7.10;;
15616;SDS011;7908;51.688;7.130;2022-11-20T07:06:49;13.70;;;7.67;;
15616;SDS011;7908;51.688;7.130;2022-11-20T07:09:17;12.17;;;6.53;;
15616;SDS011;7908;51.688;7.130;2022-11-20T07:11:46;10.43;;;6.30;;
15616;SDS011;7908;51.688;7.130;2022-11-20T07:14:14;13.67;;;8.10;;
15616;SDS011;7908;51.688;7.130;2022-11-20T07:16:45;11.27;;;6.93;;
15616;SDS011;7908;51.688;7.130;2022-11-20T07:19:13;15.00;;;8.27;;
15616;SDS011;7908;51.688;7.130;2022-11-20T07:21:42;14.53;;;8.43;;
15616;SDS011;7908;51.688;7.130;2022-11-20T07:24:10;13.33;;;7.97;;
15616;SDS011;7908;51.688;7.130;2022-11-20T07:26:39;12.90;;;8.07;;
15616;SDS011;7908;51.688;7.130;2022-11-20T07:29:07;15.67;;;8.07;;
15616;SDS011;7908;51.688;7.130;2022-11-20T07:31:36;12.03;;;6.93;;
15616;SDS011;7908;51.688;7.130;2022-11-20T07:34:06;11.23;;;7.33;;
15616;SDS011;7908;51.688;7.130;2022-11-20T07:36:34;15.03;;;8.20;;
15616;SDS011;7908;51.688;7.130;2022-11-20T07:39:03;16.67;;;7.63;;
15616;SDS011;7908;51.688;7.130;2022-11-20T07:41:32;18.87;;;7.53;;
15616;SDS011;7908;51.688;7.130;2022-11-20T07:44:01;14.70;;;8.20;;
15616;SDS011;7908;51.688;7.130;2022-11-20T07:46:29;16.93;;;8.03;;
15616;SDS011;7908;51.688;7.130;2022-11-20T07:48:58;16.37;;;8.40;;
15616;SDS011;7908;51.688;7.130;2022-11-20T07:51:28;15.80;;;8.13;;
15616;SDS011;7908;51.688;7.130;2022-11-20T07:53:57;17.47;;;8.80;;
15616;SDS011;7908;51.688;7.130;2022-11-20T07:56:25;14.70;;;8.43;;
15616;SDS011;7908;51.688;7.130;2022-11-20T07:58:54;15.70;;;9.13;;
15616;SDS011;7908;51.688;7.130;2022-11-20T08:01:23;13.90;;;8.27;;
15616;SDS011;7908;51.688;7.130;2022-11-20T08:03:51;17.20;;;9.70;;
15616;SDS011;7908;51.688;7.130;2022-11-20T08:06:20;14.27;;;9.10;;
15616;SDS011;7908;51.688;7.130;2022-11-20T08:08:50;16.23;;;9.60;;
15616;SDS011;7908;51.688;7.130;2022-11-20T08:11:19;16.13;;;9.03;;
15616;SDS011;7908;51.688;7.130;2022-11-20T08:14:13;16.73;;;9.67;;
15616;SDS011;7908;51.688;7.130;2022-11-20T08:16:43;18.30;;;8.87;;
15616;SDS011;7908;51.688;7.130;2022-11-20T08:19:13;16.27;;;9.97;;
15616;SDS011;7908;51.688;7.130;2022-11-20T08:21:44;15.23;;;9.33;;
15616;SDS011;7908;51.688;7.130;2022-11-20T08:24:14;16.27;;;9.43;;
15616;SDS011;7908;51.688;7.130;2022-11-20T08:26:42;16.43;;;9.30;;
15616;SDS011;7908;51.688;7.130;2022-11-20T08:29:11;21.13;;;9.33;;
15616;SDS011;7908;51.688;7.130;2022-11-20T08:31:40;16.50;;;8.50;;
15616;SDS011;7908;51.688;7.130;2022-11-20T08:34:09;18.00;;;10.10;;
15616;SDS011;7908;51.688;7.130;2022-11-20T08:36:44;16.73;;;9.00;;
15616;SDS011;7908;51.688;7.130;2022-11-20T08:39:15;16.47;;;9.97;;
15616;SDS011;7908;51.688;7.130;2022-11-20T08:41:44;18.07;;;9.40;;
15616;SDS011;7908;51.688;7.130;2022-11-20T08:44:13;14.97;;;8.20;;
15616;SDS011;7908;51.688;7.130;2022-11-20T08:46:41;17.70;;;8.80;;
15616;SDS011;7908;51.688;7.130;2022-11-20T08:49:12;15.83;;;8.77;;
15616;SDS011;7908;51.688;7.130;2022-11-20T08:51:44;17.03;;;9.07;;
15616;SDS011;7908;51.688;7.130;2022-11-20T08:54:16;16.67;;;9.70;;
15616;SDS011;7908;51.688;7.130;2022-11-20T08:56:46;19.20;;;9.80;;
15616;SDS011;7908;51.688;7.130;2022-11-20T08:59:15;19.60;;;10.73;;
15616;SDS011;7908;51.688;7.130;2022-11-20T09:02:03;18.93;;;10.77;;
15616;SDS011;7908;51.688;7.130;2022-11-20T09:04:32;18.37;;;10.13;;
15616;SDS011;7908;51.688;7.130;2022-11-20T09:07:01;16.67;;;10.20;;
15616;SDS011;7908;51.688;7.130;2022-11-20T09:09:31;18.43;;;10.50;;
15616;SDS011;7908;51.688;7.130;2022-11-20T09:12:00;20.37;;;9.90;;
15616;SDS011;7908;51.688;7.130;2022-11-20T09:14:29;19.53;;;11.63;;
15616;SDS011;7908;51.688;7.130;2022-11-20T09:16:58;23.47;;;12.07;;
15616;SDS011;7908;51.688;7.130;2022-11-20T09:19:27;20.13;;;12.60;;
15616;SDS011;7908;51.688;7.130;2022-11-20T09:22:03;19.10;;;12.23;;
15616;SDS011;7908;51.688;7.130;2022-11-20T09:24:33;18.90;;;11.40;;
15616;SDS011;7908;51.688;7.130;2022-11-20T09:27:03;27.33;;;15.90;;
15616;SDS011;7908;51.688;7.130;2022-11-20T09:29:33;24.40;;;16.17;;
15616;SDS011;7908;51.688;7.130;2022-11-20T09:32:02;27.53;;;16.97;;
15616;SDS011;7908;51.688;7.130;2022-11-20T09:34:31;24.63;;;15.63;;
15616;SDS011;7908;51.688;7.130;2022-11-20T09:37:00;27.63;;;16.47;;
15616;SDS011;7908;51.688;7.130;2022-11-20T09:39:34;28.63;;;18.40;;
15616;SDS011;7908;51.688;7.130;2022-11-20T09:42:17;34.37;;;20.80;;
15616;SDS011;7908;51.688;7.130;2022-11-20T09:45:05;32.37;;;20.07;;
15616;SDS011;7908;51.688;7.130;2022-11-20T09:47:48;34.33;;;20.43;;
15616;SDS011;7908;51.688;7.130;2022-11-20T09:50:30;31.97;;;20.40;;
15616;SDS011;7908;51.688;7.130;2022-11-20T09:53:06;35.53;;;21.50;;
15616;SDS011;7908;51.688;7.130;2022-11-20T09:55:42;31.77;;;20.97;;
15616;SDS011;7908;51.688;7.130;2022-11-20T09:58:14;37.00;;;22.03;;
15616;SDS011;7908;51.688;7.130;2022-11-20T10:00:49;33.97;;;19.87;;
15616;SDS011;7908;51.688;7.130;2022-11-20T10:03:26;31.00;;;19.10;;
15616;SDS011;7908;51.688;7.130;2022-11-20T10:06:03;27.87;;;16.87;;
15616;SDS011;7908;51.688;7.130;2022-11-20T10:08:39;30.10;;;19.37;;
15616;SDS011;7908;51.688;7.130;2022-11-20T10:11:14;34.37;;;22.13;;
15616;SDS011;7908;51.688;7.130;2022-11-20T10:13:52;40.67;;;23.50;;
15616;SDS011;7908;51.688;7.130;2022-11-20T10:16:32;41.83;;;26.20;;
15616;SDS011;7908;51.688;7.130;2022-11-20T10:19:13;43.93;;;27.87;;
15616;SDS011;7908;51.688;7.130;2022-11-20T10:21:56;45.63;;;29.67;;
15616;SDS011;7908;51.688;7.130;2022-11-20T10:24:38;42.97;;;27.17;;
15616;SDS011;7908;51.688;7.130;2022-11-20T10:27:24;39.33;;;26.20;;
15616;SDS011;7908;51.688;7.130;2022-11-20T10:30:07;38.47;;;26.03;;
15616;SDS011;7908;51.688;7.130;2022-11-20T10:32:38;38.30;;;28.20;;
15616;SDS011;7908;51.688;7.130;2022-11-20T10:35:14;37.87;;;26.27;;
15616;SDS011;7908;51.688;7.130;2022-11-20T10:37:49;35.70;;;25.63;;
15616;SDS011;7908;51.688;7.130;2022-11-20T10:40:23;40.40;;;28.57;;
15616;SDS011;7908;51.688;7.130;2022-11-20T10:43:01;35.77;;;26.47;;
15616;SDS011;7908;51.688;7.130;2022-11-20T10:48:22;39.13;;;28.10;;
15616;SDS011;7908;51.688;7.130;2022-11-20T10:50:54;36.90;;;28.60;;
15616;SDS011;7908;51.688;7.130;2022-11-20T10:56:34;36.03;;;26.00;;
15616;SDS011;7908;51.688;7.130;2022-11-20T10:59:27;34.70;;;26.00;;
15616;SDS011;7908;51.688;7.130;2022-11-20T11:02:17;36.27;;;25.67;;
15616;SDS011;7908;51.688;7.130;2022-11-20T11:04:49;34.63;;;25.57;;
15616;SDS011;7908;51.688;7.130;2022-11-20T11:07:20;34.33;;;25.93;;
15616;SDS011;7908;51.688;7.130;2022-11-20T11:09:53;33.30;;;24.60;;
15616;SDS011;7908;51.688;7.130;2022-11-20T11:12:24;33.37;;;24.17;;
15616;SDS011;7908;51.688;7.130;2022-11-20T11:14:56;32.57;;;23.57;;
15616;SDS011;7908;51.688;7.130;2022-11-20T11:17:28;28.00;;;22.97;;
15616;SDS011;7908;51.688;7.130;2022-11-20T11:20:04;28.40;;;21.40;;
15616;SDS011;7908;51.688;7.130;2022-11-20T11:22:43;34.77;;;25.80;;
15616;SDS011;7908;51.688;7.130;2022-11-20T11:25:20;31.03;;;25.93;;
15616;SDS011;7908;51.688;7.130;2022-11-20T11:27:52;38.87;;;28.63;;
15616;SDS011;7908;51.688;7.130;2022-11-20T11:30:27;38.10;;;30.17;;
15616;SDS011;7908;51.688;7.130;2022-11-20T11:33:05;30.80;;;24.70;;
15616;SDS011;7908;51.688;7.130;2022-11-20T11:35:39;35.03;;;26.73;;
15616;SDS011;7908;51.688;7.130;2022-11-20T11:38:21;39.23;;;28.63;;
15616;SDS011;7908;51.688;7.130;2022-11-20T11:40:56;31.60;;;24.03;;
15616;SDS011;7908;51.688;7.130;2022-11-20T11:43:26;31.97;;;25.47;;
15616;SDS011;7908;51.688;7.130;2022-11-20T11:46:27;32.17;;;24.90;;
15616;SDS011;7908;51.688;7.130;2022-11-20T11:48:59;31.60;;;24.83;;
15616;SDS011;7908;51.688;7.130;2022-11-20T11:51:31;27.43;;;21.07;;
15616;SDS011;7908;51.688;7.130;2022-11-20T11:54:05;29.17;;;21.10;;
15616;SDS011;7908;51.688;7.130;2022-11-20T11:56:43;25.10;;;20.40;;
15616;SDS011;7908;51.688;7.130;2022-11-20T11:59:14;28.80;;;22.63;;
15616;SDS011;7908;51.688;7.130;2022-11-20T12:01:51;28.33;;;22.20;;
15616;SDS011;7908;51.688;7.130;2022-11-20T12:04:27;29.93;;;22.53;;
15616;SDS011;7908;51.688;7.130;2022-11-20T12:07:10;27.60;;;21.83;;
15616;SDS011;7908;51.688;7.130;2022-11-20T12:10:04;26.27;;;21.03;;
15616;SDS011;7908;51.688;7.130;2022-11-20T12:12:36;27.07;;;21.23;;
15616;SDS011;7908;51.688;7.130;2022-11-20T12:15:09;29.37;;;20.77;;
15616;SDS011;7908;51.688;7.130;2022-11-20T12:17:45;29.30;;;20.17;;
15616;SDS011;7908;51.688;7.130;2022-11-20T12:20:14;27.33;;;20.97;;
15616;SDS011;7908;51.688;7.130;2022-11-20T12:22:44;27.40;;;21.73;;
15616;SDS011;7908;51.688;7.130;2022-11-20T12:25:20;28.47;;;21.60;;
15616;SDS011;7908;51.688;7.130;2022-11-20T12:28:02;28.63;;;20.67;;
15616;SDS011;7908;51.688;7.130;2022-11-20T12:31:14;27.73;;;19.87;;
15616;SDS011;7908;51.688;7.130;2022-11-20T12:34:12;30.10;;;24.17;;
15616;SDS011;7908;51.688;7.130;2022-11-20T12:36:56;25.83;;;20.13;;
15616;SDS011;7908;51.688;7.130;2022-11-20T12:39:34;24.73;;;20.97;;
15616;SDS011;7908;51.688;7.130;2022-11-20T12:45:32;26.83;;;20.70;;
15616;SDS011;7908;51.688;7.130;2022-11-20T12:48:34;26.07;;;20.83;;
15616;SDS011;7908;51.688;7.130;2022-11-20T12:51:20;23.33;;;19.37;;
15616;SDS011;7908;51.688;7.130;2022-11-20T12:54:00;25.03;;;19.87;;
15616;SDS011;7908;51.688;7.130;2022-11-20T12:57:00;26.53;;;21.70;;
15616;SDS011;7908;51.688;7.130;2022-11-20T12:59:48;26.63;;;21.47;;
15616;SDS011;7908;51.688;7.130;2022-11-20T13:02:29;27.63;;;20.73;;
15616;SDS011;7908;51.688;7.130;2022-11-20T13:07:51;26.33;;;20.97;;
15616;SDS011;7908;51.688;7.130;2022-11-20T13:10:23;27.77;;;21.90;;
15616;SDS011;7908;51.688;7.130;2022-11-20T13:13:00;30.50;;;22.63;;
15616;SDS011;7908;51.688;7.130;2022-11-20T13:15:42;31.50;;;24.57;;
15616;SDS011;7908;51.688;7.130;2022-11-20T13:18:15;27.40;;;22.57;;
15616;SDS011;7908;51.688;7.130;2022-11-20T13:20:45;33.43;;;26.80;;
15616;SDS011;7908;51.688;7.130;2022-11-20T13:23:24;29.37;;;23.17;;
15616;SDS011;7908;51.688;7.130;2022-11-20T13:26:03;32.13;;;24.13;;
15616;SDS011;7908;51.688;7.130;2022-11-20T13:28:34;29.20;;;23.00;;
15616;SDS011;7908;51.688;7.130;2022-11-20T13:31:04;32.43;;;24.43;;
15616;SDS011;7908;51.688;7.130;2022-11-20T13:33:33;27.77;;;22.20;;
15616;SDS011;7908;51.688;7.130;2022-11-20T13:36:05;26.20;;;20.93;;
15616;SDS011;7908;51.688;7.130;2022-11-20T13:38:44;27.27;;;21.07;;
15616;SDS011;7908;51.688;7.130;2022-11-20T13:41:22;29.23;;;22.67;;
15616;SDS011;7908;51.688;7.130;2022-11-20T13:43:58;25.63;;;20.03;;
15616;SDS011;7908;51.688;7.130;2022-11-20T13:46:35;26.97;;;20.63;;
15616;SDS011;7908;51.688;7.130;2022-11-20T13:49:07;29.20;;;22.30;;
15616;SDS011;7908;51.688;7.130;2022-11-20T13:51:40;27.67;;;21.43;;
15616;SDS011;7908;51.688;7.130;2022-11-20T14:00:27;31.07;;;24.53;;
15616;SDS011;7908;51.688;7.130;2022-11-20T14:03:01;30.40;;;23.83;;
15616;SDS011;7908;51.688;7.130;2022-11-20T14:05:39;30.30;;;23.93;;
15616;SDS011;7908;51.688;7.130;2022-11-20T14:08:17;26.60;;;22.80;;
15616;SDS011;7908;51.688;7.130;2022-11-20T14:11:02;25.90;;;20.43;;
15616;SDS011;7908;51.688;7.130;2022-11-20T14:13:51;26.77;;;21.43;;
15616;SDS011;7908;51.688;7.130;2022-11-20T14:16:25;27.00;;;21.13;;
15616;SDS011;7908;51.688;7.130;2022-11-20T14:18:56;26.70;;;20.97;;
15616;SDS011;7908;51.688;7.130;2022-11-20T14:21:45;24.30;;;19.30;;
15616;SDS011;7908;51.688;7.130;2022-11-20T14:24:18;26.80;;;21.13;;
15616;SDS011;7908;51.688;7.130;2022-11-20T14:26:48;25.17;;;20.07;;
15616;SDS011;7908;51.688;7.130;2022-11-20T14:29:21;24.57;;;20.23;;
15616;SDS011;7908;51.688;7.130;2022-11-20T14:31:55;27.67;;;20.93;;
15616;SDS011;7908;51.688;7.130;2022-11-20T14:34:26;26.40;;;21.03;;
15616;SDS011;7908;51.688;7.130;2022-11-20T14:36:57;37.87;;;26.03;;
15616;SDS011;7908;51.688;7.130;2022-11-20T14:39:30;28.60;;;22.43;;
15616;SDS011;7908;51.688;7.130;2022-11-20T14:42:00;30.20;;;23.53;;
15616;SDS011;7908;51.688;7.130;2022-11-20T14:44:31;31.27;;;27.10;;
15616;SDS011;7908;51.688;7.130;2022-11-20T14:47:04;27.93;;;22.73;;
15616;SDS011;7908;51.688;7.130;2022-11-20T14:49:37;27.07;;;23.10;;
15616;SDS011;7908;51.688;7.130;2022-11-20T14:52:11;25.50;;;19.83;;
15616;SDS011;7908;51.688;7.130;2022-11-20T14:54:45;23.13;;;19.23;;
15616;SDS011;7908;51.688;7.130;2022-11-20T14:57:20;24.03;;;20.17;;
15616;SDS011;7908;51.688;7.130;2022-11-20T15:00:02;23.97;;;19.53;;
15616;SDS011;7908;51.688;7.130;2022-11-20T15:02:38;25.57;;;20.00;;
15616;SDS011;7908;51.688;7.130;2022-11-20T15:05:09;25.03;;;20.60;;
15616;SDS011;7908;51.688;7.130;2022-11-20T15:07:38;25.87;;;20.97;;
15616;SDS011;7908;51.688;7.130;2022-11-20T15:10:13;26.80;;;21.93;;
15616;SDS011;7908;51.688;7.130;2022-11-20T15:12:49;30.80;;;23.10;;
15616;SDS011;7908;51.688;7.130;2022-11-20T15:15:23;31.60;;;24.17;;
15616;SDS011;7908;51.688;7.130;2022-11-20T15:17:57;28.30;;;22.60;;
15616;SDS011;7908;51.688;7.130;2022-11-20T15:20:27;26.83;;;21.90;;
15616;SDS011;7908;51.688;7.130;2022-11-20T15:22:58;32.87;;;25.50;;
15616;SDS011;7908;51.688;7.130;2022-11-20T15:25:26;28.80;;;22.27;;
15616;SDS011;7908;51.688;7.130;2022-11-20T15:27:55;28.47;;;23.27;;
15616;SDS011;7908;51.688;7.130;2022-11-20T15:30:26;25.40;;;20.60;;